Time;durP1;ratioP1;P1;durP2;ratioP2;P2;SDS_P1;SDS_P2;PMS_P1;PMS_P2;Temp;Humidity;BMP_temperature;BMP_pressure;BME280_temperature;BME280_humidity;BME280_pressure;Samples;Min_cycle;Max_cycle;Signal;HPM_P1;HPM_P2
2023/09/19 00:02:36;;;;;;;14.30;11.60;;;;;;;18.48;79.16;99475.05;131076;1250;106998;-82
2023/09/19 00:05:44;;;;;;;14.00;11.20;;;;;;;18.50;79.18;99468.83;131059;1254;107851;-82
2023/09/19 00:08:49;;;;;;;12.90;10.60;;;;;;;18.50;79.21;99469.13;131043;1256;106985;-82
2023/09/19 00:11:55;;;;;;;10.50;9.40;;;;;;;18.50;79.38;99466.95;131020;1254;107152;-81
2023/09/19 00:15:00;;;;;;;12.20;9.70;;;;;;;18.51;79.33;99460.01;131056;1256;107855;-81
2023/09/19 00:18:07;;;;;;;11.80;10.40;;;;;;;18.51;79.43;99460.00;131096;1255;106159;-82
2023/09/19 00:21:13;;;;;;;13.50;11.60;;;;;;;18.49;79.50;99455.91;131073;1253;108478;-82
2023/09/19 00:24:18;;;;;;;13.50;11.60;;;;;;;18.47;79.55;99451.85;131057;1254;107721;-81
2023/09/19 00:27:24;;;;;;;15.50;11.10;;;;;;;18.45;79.66;99444.77;131074;1252;107728;-82
2023/09/19 00:30:29;;;;;;;16.00;10.90;;;;;;;18.42;79.72;99440.42;131138;1267;107692;-82
2023/09/19 00:33:35;;;;;;;15.30;10.90;;;;;;;18.41;79.81;99442.81;131261;1254;106674;-81
2023/09/19 00:36:40;;;;;;;12.70;11.20;;;;;;;18.40;79.83;99445.00;130912;1257;108552;-81
2023/09/19 00:39:46;;;;;;;14.50;11.00;;;;;;;18.38;79.79;99441.11;130969;1250;108538;-81
2023/09/19 00:42:52;;;;;;;12.60;11.30;;;;;;;18.35;79.95;99439.51;131063;1254;108749;-81
2023/09/19 00:46:00;;;;;;;12.90;11.50;;;;;;;18.33;79.88;99437.75;131033;1256;107606;-81
2023/09/19 00:49:09;;;;;;;13.60;11.00;;;;;;;18.28;80.01;99432.36;131039;1250;107746;-81
2023/09/19 00:52:15;;;;;;;14.00;10.60;;;;;;;18.24;80.15;99437.56;131403;1264;108515;-82
2023/09/19 00:55:21;;;;;;;14.20;11.50;;;;;;;18.22;80.29;99436.15;131183;1256;106826;-82
2023/09/19 00:58:32;;;;;;;13.10;11.10;;;;;;;18.23;80.36;99433.70;131118;1251;108589;-83
2023/09/19 01:01:39;;;;;;;15.80;12.30;;;;;;;18.26;80.39;99429.38;131070;1252;108710;-82
2023/09/19 01:04:45;;;;;;;15.10;12.30;;;;;;;18.27;80.48;99425.23;131104;1250;107717;-82
2023/09/19 01:07:53;;;;;;;14.70;11.70;;;;;;;18.28;80.48;99422.42;131112;1254;107620;-82
2023/09/19 01:11:04;;;;;;;17.90;11.60;;;;;;;18.28;80.49;99416.53;131040;1254;106508;-81
2023/09/19 01:14:21;;;;;;;14.40;11.50;;;;;;;18.28;80.43;99409.30;131067;1256;106848;-82
2023/09/19 01:17:31;;;;;;;13.60;11.40;;;;;;;18.31;80.47;99407.61;131079;1252;108234;-82
2023/09/19 01:20:43;;;;;;;14.70;12.00;;;;;;;18.35;80.65;99405.57;131078;1251;107691;-82
2023/09/19 01:24:11;;;;;;;13.60;11.80;;;;;;;18.37;80.70;99403.30;131002;1256;105645;-82
2023/09/19 01:27:44;;;;;;;14.90;11.50;;;;;;;18.36;80.65;99399.08;131062;1251;107812;-82
2023/09/19 01:30:54;;;;;;;11.70;10.00;;;;;;;18.36;80.69;99394.59;131111;1256;106889;-81
2023/09/19 01:34:04;;;;;;;13.40;11.20;;;;;;;18.38;80.82;99390.32;131036;1254;107695;-82
2023/09/19 01:37:09;;;;;;;16.10;12.30;;;;;;;18.40;80.73;99388.65;131087;1255;107756;-82
2023/09/19 01:40:20;;;;;;;13.70;12.20;;;;;;;18.42;80.76;99384.39;131018;1257;107585;-82
2023/09/19 01:43:32;;;;;;;14.40;12.30;;;;;;;18.42;80.79;99381.02;131158;1255;106940;-82
2023/09/19 01:46:42;;;;;;;15.50;12.60;;;;;;;18.42;80.78;99381.65;131035;1253;106626;-82
2023/09/19 01:50:04;;;;;;;14.50;11.80;;;;;;;18.40;80.83;99379.09;131108;1255;105722;-82
2023/09/19 01:53:20;;;;;;;13.60;10.60;;;;;;;18.38;80.87;99378.45;131091;1253;107004;-82
2023/09/19 01:56:32;;;;;;;14.20;11.40;;;;;;;18.37;80.98;99371.59;130929;1251;107855;-82
2023/09/19 01:59:46;;;;;;;14.70;11.70;;;;;;;18.37;80.89;99369.56;130955;1256;107511;-82
2023/09/19 02:02:55;;;;;;;15.80;12.30;;;;;;;18.37;80.93;99366.41;130954;1253;106853;-82
2023/09/19 02:06:03;;;;;;;14.10;12.10;;;;;;;18.37;80.78;99369.02;131120;1251;108733;-80
2023/09/19 02:09:09;;;;;;;14.10;12.60;;;;;;;18.35;80.89;99370.67;131037;1255;107700;-82
2023/09/19 02:12:16;;;;;;;14.90;11.30;;;;;;;18.30;81.01;99374.54;131059;1253;107862;-81
2023/09/19 02:15:22;;;;;;;11.60;9.90;;;;;;;18.26;80.97;99370.80;131373;1251;107908;-83
2023/09/19 02:18:28;;;;;;;12.40;11.00;;;;;;;18.23;81.07;99364.45;131024;1254;107871;-82
2023/09/19 02:21:34;;;;;;;14.80;12.10;;;;;;;18.22;81.09;99366.19;131036;1253;108419;-82
2023/09/19 02:24:40;;;;;;;13.40;12.00;;;;;;;18.22;81.00;99362.30;131148;1255;106701;-81
2023/09/19 02:27:46;;;;;;;13.60;12.20;;;;;;;18.21;81.07;99359.57;131241;1251;106415;-83
2023/09/19 02:30:53;;;;;;;14.00;12.50;;;;;;;18.18;81.10;99353.66;131564;1254;107240;-84
2023/09/19 02:33:59;;;;;;;13.40;11.00;;;;;;;18.15;81.11;99350.38;130958;1253;107459;-87
2023/09/19 02:37:06;;;;;;;14.80;10.80;;;;;;;18.11;81.18;99343.48;131121;1254;107136;-86
2023/09/19 02:40:19;;;;;;;13.60;12.00;;;;;;;18.09;81.14;99346.00;131572;1251;107090;-85
2023/09/19 02:43:25;;;;;;;13.80;12.40;;;;;;;18.09;81.16;99348.02;131467;1250;108748;-87
2023/09/19 02:46:31;;;;;;;14.40;11.70;;;;;;;18.07;81.18;99346.84;134088;1250;107001;-87
2023/09/19 02:49:37;;;;;;;14.40;12.50;;;;;;;18.03;81.18;99344.47;133443;1251;107493;-86
2023/09/19 02:52:47;;;;;;;14.90;12.30;;;;;;;17.99;81.21;99341.23;131461;1256;108492;-87
2023/09/19 02:55:53;;;;;;;12.90;11.10;;;;;;;17.94;81.16;99334.48;131454;1254;106930;-87
2023/09/19 02:59:00;;;;;;;12.20;9.90;;;;;;;17.88;81.27;99335.71;131471;1256;108530;-88
2023/09/19 03:02:06;;;;;;;12.70;11.10;;;;;;;17.86;81.24;99341.63;131165;1256;108598;-88
2023/09/19 03:05:12;;;;;;;14.80;11.90;;;;;;;17.83;81.46;99339.22;131278;1254;108389;-88
2023/09/19 03:08:18;;;;;;;13.10;11.70;;;;;;;17.82;81.46;99333.77;130999;1253;106900;-87
2023/09/19 03:11:26;;;;;;;14.10;12.30;;;;;;;17.82;81.45;99327.23;131148;1254;108685;-87
2023/09/19 03:14:35;;;;;;;15.00;12.80;;;;;;;17.79;81.44;99332.33;131182;1253;107006;-86
2023/09/19 03:17:45;;;;;;;14.00;11.30;;;;;;;17.74;81.55;99327.64;131032;1250;107583;-86
2023/09/19 03:20:56;;;;;;;11.70;10.50;;;;;;;17.68;81.57;99325.66;131108;1264;108532;-86
2023/09/19 03:24:03;;;;;;;14.10;11.40;;;;;;;17.63;81.63;99321.60;131121;1256;107471;-86
2023/09/19 03:27:13;;;;;;;12.90;11.50;;;;;;;17.58;81.59;99323.06;131106;1251;108295;-86
2023/09/19 03:30:19;;;;;;;13.40;11.00;;;;;;;17.57;81.73;99324.11;131090;1251;106546;-87
2023/09/19 03:33:25;;;;;;;13.60;12.20;;;;;;;17.56;81.76;99322.67;131232;1251;108158;-86
2023/09/19 03:36:32;;;;;;;14.50;12.70;;;;;;;17.53;81.90;99317.70;130961;1250;106979;-87
2023/09/19 03:39:41;;;;;;;13.70;11.70;;;;;;;17.50;81.93;99316.86;131116;1256;107710;-88
2023/09/19 03:42:48;;;;;;;14.50;10.90;;;;;;;17.47;82.01;99316.27;131021;1253;107749;-88
2023/09/19 03:45:54;;;;;;;14.80;11.00;;;;;;;17.46;82.10;99314.46;130954;1250;107724;-87
2023/09/19 03:49:01;;;;;;;14.50;11.60;;;;;;;17.46;82.28;99318.35;131113;1255;106357;-87
2023/09/19 03:52:07;;;;;;;13.30;11.60;;;;;;;17.48;82.19;99317.60;130944;1251;109378;-87
2023/09/19 03:55:13;;;;;;;13.80;12.30;;;;;;;17.49;82.20;99311.69;131016;1255;107717;-87
2023/09/19 03:58:20;;;;;;;14.30;12.00;;;;;;;17.48;82.25;99313.27;131032;1254;106819;-87
2023/09/19 04:01:27;;;;;;;13.70;10.50;;;;;;;17.46;82.27;99314.73;130958;1250;107716;-87
2023/09/19 04:04:33;;;;;;;14.70;11.80;;;;;;;17.45;82.41;99311.48;130952;1253;108434;-86
2023/09/19 04:07:39;;;;;;;13.90;11.50;;;;;;;17.47;82.51;99307.05;130843;1253;108536;-86
2023/09/19 04:10:45;;;;;;;14.70;12.40;;;;;;;17.51;82.54;99305.93;130983;1256;107789;-86
2023/09/19 04:13:51;;;;;;;14.30;12.30;;;;;;;17.56;82.62;99303.20;131070;1256;108457;-86
2023/09/19 04:16:56;;;;;;;14.70;12.50;;;;;;;17.61;82.63;99300.49;131063;1250;106443;-86
2023/09/19 04:20:04;;;;;;;13.70;11.50;;;;;;;17.64;82.62;99300.80;131003;1253;107156;-86
2023/09/19 04:23:10;;;;;;;11.80;10.40;;;;;;;17.65;82.63;99296.34;131034;1256;106951;-86
2023/09/19 04:26:17;;;;;;;12.10;10.90;;;;;;;17.66;82.72;99301.23;130950;1256;107422;-86
2023/09/19 04:29:23;;;;;;;13.80;11.80;;;;;;;17.68;82.70;99304.41;131104;1250;109337;-86
2023/09/19 04:32:32;;;;;;;15.00;11.90;;;;;;;17.68;82.83;99314.45;131085;1255;106791;-87
2023/09/19 04:35:38;;;;;;;14.70;12.70;;;;;;;17.70;82.93;99315.35;131156;1251;106832;-86
2023/09/19 04:38:44;;;;;;;15.00;11.60;;;;;;;17.72;82.94;99320.23;131021;1254;107823;-86
2023/09/19 04:41:50;;;;;;;11.30;10.20;;;;;;;17.73;83.02;99326.36;131051;1254;107069;-86
2023/09/19 04:44:55;;;;;;;13.30;11.40;;;;;;;17.79;83.17;99330.11;131056;1256;107171;-86
2023/09/19 04:48:02;;;;;;;13.40;11.40;;;;;;;17.87;83.17;99325.54;130963;1251;107848;-86
2023/09/19 04:51:08;;;;;;;14.50;11.50;;;;;;;17.95;83.10;99319.08;131110;1256;107717;-87
2023/09/19 04:54:14;;;;;;;14.00;11.50;;;;;;;17.99;83.14;99316.11;131024;1254;106515;-87
2023/09/19 04:57:20;;;;;;;13.00;10.80;;;;;;;18.02;83.17;99318.82;130975;1254;107754;-87
2023/09/19 05:00:30;;;;;;;15.20;10.40;;;;;;;18.04;83.40;99317.52;131046;1256;107821;-87
2023/09/19 05:03:36;;;;;;;15.00;10.60;;;;;;;18.10;83.44;99319.65;131057;1254;107884;-90
2023/09/19 05:06:41;;;;;;;13.50;10.90;;;;;;;18.15;83.35;99325.66;131029;1264;107701;-88
2023/09/19 05:09:47;;;;;;;12.40;11.10;;;;;;;18.19;83.59;99325.56;131141;1255;108651;-89
2023/09/19 05:12:55;;;;;;;15.60;11.30;;;;;;;18.23;83.33;99329.52;131135;1250;107335;-91
2023/09/19 05:16:03;;;;;;;13.60;11.00;;;;;;;18.26;83.34;99327.16;131083;1256;107764;-88
2023/09/19 05:19:11;;;;;;;12.90;10.00;;;;;;;18.28;83.57;99331.20;131171;1254;107561;-87
2023/09/19 05:22:18;;;;;;;12.20;10.90;;;;;;;18.32;83.56;99327.37;131051;1256;107166;-88
2023/09/19 05:25:24;;;;;;;13.30;10.80;;;;;;;18.36;83.55;99325.45;131094;1251;107019;-88
2023/09/19 05:28:32;;;;;;;15.40;12.10;;;;;;;18.41;83.51;99319.36;131122;1254;106792;-88
2023/09/19 05:31:40;;;;;;;13.00;11.60;;;;;;;18.45;83.40;99312.61;131104;1255;106747;-88
2023/09/19 05:34:47;;;;;;;16.90;11.50;;;;;;;18.49;83.49;99302.10;131099;1250;107563;-88
2023/09/19 05:37:55;;;;;;;12.70;10.60;;;;;;;18.53;83.41;99298.27;131013;1254;107759;-94
2023/09/19 05:41:02;;;;;;;12.50;10.90;;;;;;;18.63;83.36;99305.73;131133;1254;107227;-90
2023/09/19 05:44:09;;;;;;;13.50;11.70;;;;;;;18.73;83.24;99310.59;131069;1253;108408;-90
2023/09/19 05:47:14;;;;;;;14.90;11.90;;;;;;;18.83;83.30;99316.54;130973;1255;107104;-87
2023/09/19 05:50:20;;;;;;;13.80;12.00;;;;;;;18.89;83.16;99310.67;131094;1250;107984;-89
2023/09/19 05:53:26;;;;;;;14.90;11.70;;;;;;;19.02;83.14;99317.05;131044;1255;107086;-89
2023/09/19 05:56:32;;;;;;;13.30;11.50;;;;;;;19.14;83.11;99322.73;131091;1255;108528;-95
2023/09/19 05:59:42;;;;;;;13.10;11.30;;;;;;;19.24;82.83;99326.40;131050;1256;107357;-89
2023/09/19 06:02:54;;;;;;;13.70;11.70;;;;;;;19.37;82.76;99330.39;131142;1256;107725;-94
2023/09/19 06:05:59;;;;;;;;;;;;;;;19.50;82.60;99332.96;131115;1256;108637;-93
2023/09/19 06:09:05;;;;;;;14.20;12.10;;;;;;;19.64;82.36;99334.59;131081;1256;106801;-93
2023/09/19 06:12:15;;;;;;;13.90;12.00;;;;;;;19.78;82.48;99332.84;131068;1255;107506;-91
2023/09/19 06:15:24;;;;;;;13.60;11.50;;;;;;;19.92;82.33;99334.63;131101;1256;108724;-92
2023/09/19 06:18:33;;;;;;;13.50;10.80;;;;;;;20.06;82.15;99336.91;131222;1256;107108;-90
2023/09/19 06:21:39;;;;;;;15.80;11.60;;;;;;;20.24;81.87;99345.81;131081;1256;107115;-90
2023/09/19 06:24:47;;;;;;;13.00;11.60;;;;;;;20.43;81.68;99352.20;131139;1251;106047;-90
2023/09/19 06:27:53;;;;;;;13.50;11.90;;;;;;;20.65;81.57;99348.28;130920;1257;106598;-90
2023/09/19 06:30:59;;;;;;;14.60;13.10;;;;;;;20.82;80.14;99346.67;131118;1251;107506;-89
2023/09/19 06:34:06;;;;;;;15.80;12.70;;;;;;;20.91;80.44;99349.05;131210;1254;106834;-92
2023/09/19 06:37:12;;;;;;;13.50;12.10;;;;;;;21.02;80.32;99357.65;131123;1250;107220;-88
2023/09/19 06:40:19;;;;;;;14.80;13.20;;;;;;;21.10;79.25;99365.55;131192;1251;107108;-89
2023/09/19 06:43:24;;;;;;;13.60;10.80;;;;;;;21.06;79.52;99364.98;131104;1253;108342;-90
2023/09/19 06:46:32;;;;;;;13.60;12.00;;;;;;;21.01;78.60;99365.02;131246;1254;107216;-90
2023/09/19 06:49:38;;;;;;;14.10;11.10;;;;;;;20.90;79.23;99368.39;131266;1256;107545;-89
2023/09/19 06:52:44;;;;;;;13.40;11.60;;;;;;;20.89;79.29;99366.63;131078;1253;107457;-90
2023/09/19 06:55:50;;;;;;;14.50;11.40;;;;;;;20.98;78.89;99366.76;131063;1254;108159;-89
2023/09/19 06:58:55;;;;;;;14.90;11.80;;;;;;;21.21;79.27;99373.40;131079;1254;107369;-90
2023/09/19 07:02:06;;;;;;;12.90;10.80;;;;;;;21.45;77.90;99377.46;130895;1258;107584;-88
2023/09/19 07:05:12;;;;;;;13.70;10.70;;;;;;;21.57;77.49;99382.34;130887;1255;107342;-91
2023/09/19 07:08:21;;;;;;;14.50;10.30;;;;;;;21.73;77.65;99378.08;130976;1253;107465;-92
2023/09/19 07:11:27;;;;;;;12.70;10.50;;;;;;;21.82;77.96;99379.41;130964;1256;108546;-92
2023/09/19 07:14:32;;;;;;;11.60;9.90;;;;;;;21.94;77.62;99386.21;131031;1253;107363;-89
2023/09/19 07:17:38;;;;;;;11.30;9.60;;;;;;;21.91;76.62;99403.92;131019;1256;107206;-89
2023/09/19 07:20:49;;;;;;;13.20;9.50;;;;;;;21.64;77.83;99422.14;131191;1253;107814;-90
2023/09/19 07:23:55;;;;;;;11.40;9.10;;;;;;;21.47;77.74;99437.27;131126;1257;107680;-91
2023/09/19 07:27:05;;;;;;;8.60;7.70;;;;;;;21.17;78.37;99440.11;131026;1256;108034;-93
2023/09/19 07:30:12;;;;;;;9.50;8.50;;;;;;;20.98;79.09;99441.66;131103;1256;106778;-90
2023/09/19 07:33:18;;;;;;;8.30;7.30;;;;;;;20.68;80.04;99428.95;131017;1255;107246;-92
2023/09/19 07:36:24;;;;;;;8.50;6.90;;;;;;;20.42;80.57;99428.39;131050;1259;107565;-91
2023/09/19 07:39:29;;;;;;;8.20;7.20;;;;;;;20.17;82.27;99431.48;131033;1253;108674;-91
2023/09/19 07:42:36;;;;;;;11.20;8.00;;;;;;;19.93;82.71;99437.05;130962;1254;107266;-90
2023/09/19 07:45:42;;;;;;;8.90;7.10;;;;;;;19.72;83.80;99438.02;130990;1255;108780;-90
2023/09/19 07:48:48;;;;;;;9.10;7.00;;;;;;;19.59;83.66;99442.14;131000;1256;107450;-91
2023/09/19 07:51:54;;;;;;;11.90;6.50;;;;;;;19.50;83.81;99440.77;130996;1256;106792;-92
2023/09/19 07:55:01;;;;;;;7.60;6.20;;;;;;;19.40;85.01;99442.42;130958;1257;107126;-89
2023/09/19 07:58:07;;;;;;;10.00;6.80;;;;;;;19.32;85.55;99445.38;130948;1252;108415;-91
2023/09/19 08:01:13;;;;;;;11.10;7.40;;;;;;;19.21;85.37;99454.63;130971;1257;107270;-91
2023/09/19 08:04:19;;;;;;;8.60;6.60;;;;;;;19.16;86.27;99450.05;131056;1256;107903;-92
2023/09/19 08:07:25;;;;;;;9.10;6.70;;;;;;;19.10;86.53;99449.30;131112;1256;106460;-91
2023/09/19 08:10:35;;;;;;;10.50;6.30;;;;;;;19.01;88.03;99449.58;131027;1254;107478;-92
2023/09/19 08:13:43;;;;;;;10.50;7.20;;;;;;;18.93;87.43;99451.10;130994;1257;107593;-91
2023/09/19 08:16:49;;;;;;;10.70;7.50;;;;;;;18.96;87.27;99451.61;131053;1253;107480;-92
2023/09/19 08:19:55;;;;;;;10.20;6.80;;;;;;;18.97;88.52;99448.46;130981;1256;106656;-92
2023/09/19 08:23:00;;;;;;;9.80;7.30;;;;;;;18.90;88.01;99445.81;131047;1256;107194;-91
2023/09/19 08:26:07;;;;;;;11.30;7.50;;;;;;;18.97;87.57;99449.97;130973;1256;107251;-92
2023/09/19 08:29:13;;;;;;;10.00;7.70;;;;;;;19.04;88.22;99446.80;131073;1255;108179;-91
2023/09/19 08:32:23;;;;;;;9.80;7.00;;;;;;;19.04;88.04;99446.76;130970;1255;107586;-93
2023/09/19 08:35:29;;;;;;;11.30;7.30;;;;;;;19.05;89.66;99449.86;131139;1256;106869;-90
2023/09/19 08:38:36;;;;;;;11.50;8.00;;;;;;;19.04;90.18;99452.53;131099;1256;108594;-91
2023/09/19 08:41:42;;;;;;;10.70;7.20;;;;;;;19.05;89.34;99457.27;131063;1257;108260;-90
2023/09/19 08:44:48;;;;;;;10.30;6.90;;;;;;;19.06;90.24;99454.59;130979;1251;106324;-91
2023/09/19 08:48:06;;;;;;;9.60;6.70;;;;;;;19.06;90.74;99457.66;131155;1250;107058;-91
2023/09/19 08:51:18;;;;;;;8.70;7.00;;;;;;;19.08;91.15;99452.91;131138;1256;107265;-91
2023/09/19 08:54:30;;;;;;;9.00;6.40;;;;;;;19.13;90.43;99461.65;131096;1256;106113;-89
2023/09/19 08:57:41;;;;;;;9.60;6.00;;;;;;;19.21;90.23;99461.39;131173;1250;106709;-90
2023/09/19 09:00:49;;;;;;;7.40;5.80;;;;;;;19.33;90.34;99458.02;131186;1253;106700;-90
2023/09/19 09:03:56;;;;;;;8.20;5.60;;;;;;;19.36;90.59;99454.93;131131;1254;107166;-89
2023/09/19 09:07:03;;;;;;;7.90;5.50;;;;;;;19.37;90.75;99455.91;131103;1251;107122;-90
2023/09/19 09:10:10;;;;;;;7.30;5.30;;;;;;;19.45;90.22;99454.34;131035;1256;107229;-90
2023/09/19 09:13:17;;;;;;;7.60;5.70;;;;;;;19.51;90.45;99455.41;131066;1256;106693;-90
2023/09/19 09:16:25;;;;;;;7.10;4.90;;;;;;;19.57;90.13;99462.31;131092;1253;106648;-89
2023/09/19 09:19:32;;;;;;;6.50;4.40;;;;;;;19.70;90.00;99466.16;131127;1255;106597;-92
2023/09/19 09:22:39;;;;;;;6.20;4.80;;;;;;;19.86;89.96;99473.68;131076;1256;107035;-92
2023/09/19 09:25:56;;;;;;;7.70;4.90;;;;;;;20.02;89.90;99474.95;131031;1256;107711;-90
2023/09/19 09:29:02;;;;;;;6.30;4.80;;;;;;;20.18;89.82;99473.73;131144;1256;106072;-90
2023/09/19 09:32:24;;;;;;;6.30;5.00;;;;;;;20.32;89.57;99474.17;131005;1254;107343;-91
2023/09/19 09:35:30;;;;;;;5.60;4.60;;;;;;;20.40;89.48;99471.58;131123;1256;107191;-90
2023/09/19 09:38:48;;;;;;;7.10;4.00;;;;;;;20.53;89.54;99462.88;131085;1253;106613;-90
2023/09/19 09:41:53;;;;;;;6.30;4.60;;;;;;;20.73;89.34;99459.92;131095;1256;107504;-90
2023/09/19 09:45:15;;;;;;;5.10;4.30;;;;;;;20.94;89.14;99459.58;131068;1253;107789;-90
2023/09/19 09:48:31;;;;;;;4.80;3.80;;;;;;;21.05;88.64;99463.23;131098;1254;107409;-90
2023/09/19 09:51:39;;;;;;;6.50;4.10;;;;;;;21.16;88.75;99466.95;131207;1250;107241;-90
2023/09/19 09:55:05;;;;;;;5.60;4.00;;;;;;;21.34;88.87;99481.40;131130;1256;106992;-90
2023/09/19 09:58:23;;;;;;;5.60;4.00;;;;;;;21.43;88.42;99487.97;131110;1256;107399;-90
2023/09/19 10:01:46;;;;;;;7.90;4.10;;;;;;;21.48;88.50;99488.59;131130;1256;107021;-90
2023/09/19 10:04:58;;;;;;;4.60;3.50;;;;;;;21.55;88.35;99493.11;131167;1256;105582;-90
2023/09/19 10:08:18;;;;;;;5.20;3.60;;;;;;;21.60;88.42;99498.09;130975;1253;108234;-91
2023/09/19 10:11:30;;;;;;;6.10;3.90;;;;;;;21.66;88.12;99494.98;131104;1250;107171;-90
2023/09/19 10:14:39;;;;;;;5.60;3.50;;;;;;;21.64;87.89;99500.58;131089;1256;107010;-91
2023/09/19 10:17:46;;;;;;;4.10;3.50;;;;;;;21.62;88.17;99504.97;131061;1256;107246;-90
2023/09/19 10:20:52;;;;;;;6.20;3.60;;;;;;;21.61;88.07;99507.71;131156;1255;109671;-92
2023/09/19 10:24:02;;;;;;;4.70;3.40;;;;;;;21.59;88.07;99507.95;131038;1265;107343;-90
2023/09/19 10:27:09;;;;;;;5.60;3.60;;;;;;;21.59;88.05;99505.61;131068;1257;107886;-90
2023/09/19 10:30:15;;;;;;;4.40;3.80;;;;;;;21.62;87.91;99507.45;131080;1256;107654;-91
2023/09/19 10:33:25;;;;;;;5.00;3.60;;;;;;;21.65;87.94;99501.10;131146;1256;107376;-90
2023/09/19 10:36:35;;;;;;;4.10;3.50;;;;;;;21.69;87.78;99503.02;131170;1256;106070;-92
2023/09/19 10:39:44;;;;;;;4.60;4.00;;;;;;;21.72;87.72;99508.71;131109;1256;107959;-90
2023/09/19 10:42:51;;;;;;;6.70;4.30;;;;;;;21.79;87.53;99507.48;131346;1253;106975;-91
2023/09/19 10:46:03;;;;;;;5.20;3.70;;;;;;;21.84;87.39;99505.62;131100;1251;107810;-91
2023/09/19 10:49:11;;;;;;;4.70;3.60;;;;;;;21.94;87.23;99505.47;131034;1256;107515;-90
2023/09/19 10:52:23;;;;;;;6.40;4.20;;;;;;;21.99;87.41;99507.81;131083;1261;107101;-90
2023/09/19 10:55:31;;;;;;;5.00;3.90;;;;;;;21.97;87.40;99517.17;131093;1253;107735;-90
2023/09/19 10:58:39;;;;;;;4.80;3.70;;;;;;;21.91;87.51;99520.41;131152;1255;106494;-90
2023/09/19 11:01:56;;;;;;;5.70;3.70;;;;;;;21.90;87.65;99520.98;131220;1253;107510;-89
2023/09/19 11:05:15;;;;;;;4.70;3.80;;;;;;;21.96;87.60;99523.81;131212;1251;376140;-91
2023/09/19 11:08:23;;;;;;;6.60;4.50;;;;;;;21.93;87.18;99536.08;131470;1250;107225;-90
2023/09/19 11:11:52;;;;;;;5.10;4.20;;;;;;;21.84;87.37;99541.57;131232;1252;109178;-92
2023/09/19 11:14:58;;;;;;;6.80;5.00;;;;;;;21.81;87.68;99535.05;131055;1253;105964;-91
2023/09/19 11:18:41;;;;;;;4.70;4.20;;;;;;;21.74;87.39;99536.35;131004;1256;107497;-89
2023/09/19 11:21:56;;;;;;;6.20;4.80;;;;;;;21.76;87.84;99542.23;131156;1255;107552;-91
2023/09/19 11:25:47;;;;;;;5.80;5.10;;;;;;;21.78;87.60;99546.46;131067;1254;106858;-89
2023/09/19 11:29:29;;;;;;;7.10;5.90;;;;;;;21.78;87.71;99545.33;131069;1255;107051;-90
2023/09/19 11:33:10;;;;;;;7.40;4.90;;;;;;;21.81;87.57;99544.68;131066;1257;106187;-90
2023/09/19 11:36:19;;;;;;;5.50;5.00;;;;;;;21.81;87.67;99550.87;131154;1257;106960;-91
2023/09/19 11:39:29;;;;;;;9.00;5.70;;;;;;;21.80;87.60;99552.86;131168;1256;107047;-92
2023/09/19 11:42:49;;;;;;;6.90;5.60;;;;;;;21.81;87.76;99555.72;131098;1257;107237;-89
2023/09/19 11:46:10;;;;;;;7.40;6.00;;;;;;;21.84;87.39;99552.76;131144;1264;106992;-92
2023/09/19 11:49:20;;;;;;;9.30;6.00;;;;;;;21.85;87.60;99552.98;131211;1254;106992;-90
2023/09/19 11:52:29;;;;;;;7.00;5.70;;;;;;;21.78;87.64;99553.05;131222;1253;107214;-90
2023/09/19 11:55:35;;;;;;;6.10;5.40;;;;;;;21.78;87.86;99553.23;131096;1264;107550;-92
2023/09/19 11:58:43;;;;;;;6.70;5.60;;;;;;;21.78;87.43;99558.36;131039;1256;107201;-90
2023/09/19 12:01:57;;;;;;;7.40;6.20;;;;;;;21.80;87.46;99559.25;131222;1250;107152;-90
2023/09/19 12:05:04;;;;;;;7.60;6.00;;;;;;;21.70;87.56;99561.27;131151;1250;107614;-89
2023/09/19 12:08:10;;;;;;;5.90;5.20;;;;;;;21.62;87.75;99563.00;131032;1256;107658;-92
2023/09/19 12:11:17;;;;;;;5.90;5.40;;;;;;;21.63;88.02;99563.52;131074;1256;107413;-90
2023/09/19 12:14:27;;;;;;;6.70;5.90;;;;;;;21.66;87.85;99564.33;131139;1253;107234;-91
2023/09/19 12:17:41;;;;;;;7.00;6.30;;;;;;;21.66;87.01;99565.62;131031;1255;106598;-90
2023/09/19 12:20:47;;;;;;;7.20;5.80;;;;;;;21.74;87.14;99559.60;131116;1256;107099;-90
2023/09/19 12:24:05;;;;;;;8.90;5.70;;;;;;;21.87;86.61;99562.42;131028;1256;107540;-90
2023/09/19 12:27:11;;;;;;;5.60;5.10;;;;;;;21.92;86.40;99567.73;131329;1256;107640;-90
2023/09/19 12:30:19;;;;;;;5.40;4.80;;;;;;;21.84;85.30;99569.81;130996;1254;107699;-90
2023/09/19 12:33:25;;;;;;;8.10;5.20;;;;;;;21.69;85.78;99576.33;131152;1256;107397;-90
2023/09/19 12:36:34;;;;;;;7.80;6.50;;;;;;;21.61;86.01;99577.00;131189;1255;108718;-90
2023/09/19 12:39:44;;;;;;;7.80;5.70;;;;;;;21.49;85.72;99577.15;131142;1256;107227;-90
2023/09/19 12:42:51;;;;;;;6.10;5.40;;;;;;;21.46;86.66;99577.85;131152;1256;107516;-92
2023/09/19 12:45:56;;;;;;;6.60;5.00;;;;;;;21.45;86.45;99583.48;131219;1255;107277;-91
2023/09/19 12:49:22;;;;;;;5.90;4.90;;;;;;;21.50;85.57;99587.27;131078;1256;107532;-90
2023/09/19 12:52:35;;;;;;;7.00;4.00;;;;;;;21.51;85.24;99592.77;131083;1256;107625;-91
2023/09/19 12:55:42;;;;;;;4.80;3.70;;;;;;;21.43;82.54;99598.84;131056;1260;107144;-90
2023/09/19 12:58:56;;;;;;;4.10;3.70;;;;;;;21.44;84.08;99600.81;131124;1256;107245;-90
2023/09/19 13:02:13;;;;;;;3.90;2.90;;;;;;;21.46;83.37;99602.58;131172;1253;107464;-89
2023/09/19 13:05:19;;;;;;;3.90;3.20;;;;;;;21.38;83.30;99604.46;131190;1256;107640;-93
2023/09/19 13:08:29;;;;;;;3.40;2.90;;;;;;;21.45;83.99;99609.30;131034;1254;107411;-90
2023/09/19 13:11:42;;;;;;;5.90;3.70;;;;;;;21.56;82.76;99605.80;131092;1256;107244;-90
2023/09/19 13:14:50;;;;;;;6.50;4.10;;;;;;;21.36;80.42;99611.48;131112;1257;107509;-92
2023/09/19 13:17:59;;;;;;;4.70;3.60;;;;;;;21.01;81.37;99610.41;131202;1265;107529;-92
2023/09/19 13:21:15;;;;;;;4.90;3.70;;;;;;;20.76;81.88;99613.45;131102;1257;106946;-91
2023/09/19 13:24:27;;;;;;;5.10;3.90;;;;;;;20.65;82.44;99617.14;131096;1257;106993;-91
2023/09/19 13:27:33;;;;;;;5.00;4.50;;;;;;;20.70;82.75;99613.02;131014;1255;107541;-91
2023/09/19 13:30:42;;;;;;;6.00;4.00;;;;;;;20.69;82.67;99614.36;131058;1256;107815;-90
2023/09/19 13:33:50;;;;;;;4.10;3.60;;;;;;;20.70;82.93;99615.36;131065;1256;107583;-90
2023/09/19 13:36:55;;;;;;;5.10;3.70;;;;;;;20.75;83.15;99613.58;131055;1257;107634;-91
2023/09/19 13:40:01;;;;;;;5.00;4.20;;;;;;;20.80;82.94;99615.10;131031;1256;106582;-91
2023/09/19 13:43:08;;;;;;;5.40;3.60;;;;;;;20.84;82.54;99615.83;131028;1255;107570;-89
2023/09/19 13:46:16;;;;;;;4.80;3.90;;;;;;;20.93;82.42;99618.33;131148;1254;107000;-92
2023/09/19 13:49:23;;;;;;;5.10;3.40;;;;;;;20.95;82.47;99611.60;131116;1264;107641;-90
2023/09/19 13:52:30;;;;;;;3.60;3.10;;;;;;;21.02;82.31;99611.20;131170;1254;106749;-92
2023/09/19 13:55:37;;;;;;;2.90;2.60;;;;;;;21.12;82.36;99609.29;131364;1251;106980;-86
2023/09/19 13:58:43;;;;;;;5.90;3.50;;;;;;;21.29;81.89;99601.67;131543;1264;107215;-92
2023/09/19 14:01:48;;;;;;;3.90;2.70;;;;;;;21.41;81.35;99598.66;131370;1254;107249;-91
2023/09/19 14:04:54;;;;;;;2.60;2.30;;;;;;;21.50;81.13;99599.11;131052;1264;107020;-90
2023/09/19 14:08:03;;;;;;;4.50;2.30;;;;;;;21.66;81.50;99597.23;131130;1257;107596;-89
2023/09/19 14:11:09;;;;;;;3.10;2.20;;;;;;;21.74;79.60;99599.45;131067;1254;107573;-91
2023/09/19 14:14:15;;;;;;;3.60;2.50;;;;;;;21.84;80.29;99598.92;130995;1256;108263;-89
2023/09/19 14:17:21;;;;;;;2.80;2.40;;;;;;;21.87;77.33;99601.33;131035;1255;106282;-90
2023/09/19 14:20:27;;;;;;;3.30;2.20;;;;;;;21.78;77.33;99600.02;131039;1252;107815;-91